Time;durP1;ratioP1;P1;durP2;ratioP2;P2;SDS_P1;SDS_P2;PMS_P1;PMS_P2;Temp;Humidity;BMP_temperature;BMP_pressure;BME280_temperature;BME280_humidity;BME280_pressure;Samples;Min_cycle;Max_cycle;Signal;HPM_P1;HPM_P2
2022/07/03 00:01:47;;;;;;;4.57;2.90;;;23.50;73.90;;;;;;4995626;28;20185;-72
2022/07/03 00:04:12;;;;;;;4.13;2.90;;;23.60;74.00;;;;;;4995858;28;20231;-72
2022/07/03 00:06:38;;;;;;;4.47;2.83;;;23.50;74.30;;;;;;4990077;28;20884;-71
2022/07/03 00:09:05;;;;;;;3.33;2.90;;;23.50;74.70;;;;;;4993911;28;20206;-72
2022/07/03 00:11:31;;;;;;;5.10;2.90;;;23.40;75.00;;;;;;4994653;28;20197;-71
2022/07/03 00:13:57;;;;;;;3.47;2.60;;;23.30;75.80;;;;;;4995968;28;20448;-70
2022/07/03 00:16:23;;;;;;;3.70;3.40;;;23.20;76.50;;;;;;4991082;28;21173;-69
2022/07/03 00:18:48;;;;;;;3.37;3.07;;;23.10;77.60;;;;;;4997364;28;20215;-68
2022/07/03 00:21:45;;;;;;;4.30;3.20;;;23.10;77.80;;;;;;4991694;28;20220;-69
2022/07/03 00:24:20;;;;;;;4.67;3.33;;;22.90;78.90;;;;;;4995053;28;20208;-69
2022/07/03 00:26:50;;;;;;;3.40;3.10;;;22.90;79.70;;;;;;4994349;28;20464;-68
2022/07/03 00:29:17;;;;;;;3.60;3.30;;;22.70;80.40;;;;;;4996004;28;20517;-69
2022/07/03 00:31:43;;;;;;;3.73;3.33;;;22.70;81.10;;;;;;4994046;28;20481;-68
2022/07/03 00:34:12;;;;;;;3.10;2.80;;;22.70;81.70;;;;;;4996485;28;20466;-68
2022/07/03 00:36:38;;;;;;;5.30;2.73;;;22.70;82.10;;;;;;4990681;28;20863;-68
2022/07/03 00:39:04;;;;;;;6.00;2.70;;;22.70;82.80;;;;;;4999049;28;20456;-68
2022/07/03 00:41:37;;;;;;;3.10;2.80;;;22.60;82.80;;;;;;4989054;28;20437;-68
2022/07/03 00:44:03;;;;;;;3.53;3.23;;;22.60;83.40;;;;;;4992286;28;20476;-68
2022/07/03 00:46:29;;;;;;;3.90;3.50;;;22.60;84.20;;;;;;4993948;28;20485;-68
2022/07/03 00:48:56;;;;;;;5.60;3.03;;;22.60;85.00;;;;;;4993999;28;20623;-68
2022/07/03 00:51:25;;;;;;;9.87;3.00;;;22.50;85.00;;;;;;4994076;28;20455;-67
2022/07/03 00:53:53;;;;;;;3.80;3.40;;;22.40;85.80;;;;;;4993747;28;20444;-69
2022/07/03 00:56:30;;;;;;;3.30;2.93;;;22.60;85.80;;;;;;4992152;28;20463;-68
2022/07/03 00:58:58;;;;;;;3.70;3.07;;;22.60;86.00;;;;;;4993714;28;20468;-69
2022/07/03 01:01:32;;;;;;;7.63;2.70;;;22.40;87.20;;;;;;4993486;28;20475;-69
2022/07/03 01:04:03;;;;;;;4.73;3.03;;;22.40;87.30;;;;;;5003098;28;21354;-69
2022/07/03 01:06:35;;;;;;;2.60;2.40;;;22.50;87.70;;;;;;4993016;28;21052;-69
2022/07/03 01:09:03;;;;;;;3.20;2.83;;;22.40;87.70;;;;;;4992491;28;20472;-69
2022/07/03 01:12:01;;;;;;;4.40;2.80;;;22.40;88.20;;;;;;4993221;28;20841;-69
2022/07/03 01:15:09;;;;;;;4.23;3.07;;;22.50;88.20;;;;;;4995327;28;20467;-68
2022/07/03 01:17:39;;;;;;;3.30;3.00;;;22.50;88.40;;;;;;4984607;28;20460;-68
2022/07/03 01:20:06;;;;;;;4.90;2.73;;;22.40;89.20;;;;;;4999755;28;20850;-68
2022/07/03 01:22:44;;;;;;;3.90;2.60;;;22.20;90.20;;;;;;4990733;28;20441;-68
2022/07/03 01:25:45;;;;;;;4.20;3.00;;;22.10;90.50;;;;;;4994272;28;20435;-69
2022/07/03 01:28:15;;;;;;;3.10;2.80;;;21.90;91.00;;;;;;4981538;28;20483;-68
2022/07/03 01:30:46;;;;;;;4.07;2.80;;;21.90;91.20;;;;;;4994076;28;20464;-68
2022/07/03 01:33:17;;;;;;;4.10;2.90;;;21.90;91.70;;;;;;4991645;28;20539;-68
2022/07/03 01:36:00;;;;;;;3.00;2.67;;;21.80;91.80;;;;;;4992555;28;20451;-68
2022/07/03 01:38:31;;;;;;;3.63;2.90;;;21.90;92.30;;;;;;4993054;28;20455;-67
2022/07/03 01:40:58;;;;;;;4.10;3.20;;;21.80;92.80;;;;;;4992049;28;20475;-68
2022/07/03 01:43:30;;;;;;;3.00;2.70;;;21.90;92.90;;;;;;4994065;28;20522;-67
2022/07/03 01:46:01;;;;;;;2.77;2.57;;;21.80;93.10;;;;;;4990447;28;20444;-69
2022/07/03 01:48:29;;;;;;;2.83;2.63;;;21.70;93.60;;;;;;4997246;28;20509;-69
2022/07/03 01:50:57;;;;;;;4.00;2.90;;;21.80;93.80;;;;;;4992108;28;22190;-69
2022/07/03 01:53:28;;;;;;;3.27;2.90;;;21.80;94.10;;;;;;4996055;28;20859;-69
2022/07/03 01:55:58;;;;;;;2.83;2.63;;;21.80;94.50;;;;;;4988468;28;20567;-69
2022/07/03 01:58:24;;;;;;;4.60;3.03;;;21.80;94.40;;;;;;4993296;28;20548;-69
2022/07/03 02:01:25;;;;;;;3.80;2.67;;;21.70;94.80;;;;;;4990948;28;21091;-69
2022/07/03 02:04:16;;;;;;;2.83;2.47;;;21.90;94.90;;;;;;4996042;28;20933;-69
2022/07/03 02:07:14;;;;;;;2.80;2.60;;;22.00;94.60;;;;;;4990962;28;20448;-68
2022/07/03 02:10:05;;;;;;;3.27;2.80;;;21.90;95.00;;;;;;4992636;28;20440;-67
2022/07/03 02:12:49;;;;;;;3.13;2.80;;;21.70;95.90;;;;;;4992575;28;20436;-68
2022/07/03 02:15:20;;;;;;;4.63;2.60;;;21.60;96.10;;;;;;4992235;28;20527;-68
2022/07/03 02:17:47;;;;;;;3.37;2.70;;;21.40;96.70;;;;;;4993274;28;20459;-68
2022/07/03 02:20:16;;;;;;;3.10;2.80;;;21.40;97.30;;;;;;4993505;28;20946;-68
2022/07/03 02:22:44;;;;;;;4.00;3.57;;;21.50;97.60;;;;;;4994046;28;20540;-67
2022/07/03 02:25:24;;;;;;;3.10;2.90;;;21.50;97.90;;;;;;4996000;28;20815;-68
2022/07/03 02:28:02;;;;;;;2.93;2.63;;;21.30;98.70;;;;;;4998057;28;20444;-69
2022/07/03 02:30:28;;;;;;;2.70;2.50;;;21.50;98.70;;;;;;4996640;28;20448;-67
2022/07/03 02:32:56;;;;;;;4.10;3.10;;;21.60;98.60;;;;;;4994243;28;20440;-70
2022/07/03 02:35:26;;;;;;;3.20;2.80;;;21.50;98.90;;;;;;4997384;28;20822;-68
2022/07/03 02:37:58;;;;;;;2.90;2.60;;;21.50;99.10;;;;;;4993180;28;20518;-68
2022/07/03 02:40:35;;;;;;;3.13;2.83;;;21.50;99.30;;;;;;4995865;28;20515;-68
2022/07/03 02:43:01;;;;;;;5.20;3.20;;;21.50;99.20;;;;;;5000611;28;20483;-68
2022/07/03 02:45:38;;;;;;;2.90;2.60;;;21.50;99.70;;;;;;4996367;28;20476;-68
2022/07/03 02:48:24;;;;;;;2.97;2.73;;;21.40;99.90;;;;;;4998151;28;20216;-67
2022/07/03 02:50:54;;;;;;;3.13;2.83;;;21.40;99.90;;;;;;4996433;28;20826;-70
2022/07/03 02:53:30;;;;;;;3.13;2.83;;;21.30;99.90;;;;;;4997533;28;20448;-69
2022/07/03 02:56:07;;;;;;;3.07;2.80;;;21.20;99.90;;;;;;4994017;28;20530;-69
2022/07/03 02:58:57;;;;;;;3.00;2.80;;;21.10;99.90;;;;;;4993634;28;20466;-68
2022/07/03 03:01:44;;;;;;;5.00;2.73;;;21.20;99.90;;;;;;4994881;28;20706;-68
2022/07/03 03:04:26;;;;;;;5.90;3.20;;;21.20;99.90;;;;;;4997980;28;20427;-68
2022/07/03 03:07:04;;;;;;;2.93;2.63;;;21.00;99.90;;;;;;4994175;28;20441;-71
2022/07/03 03:09:40;;;;;;;4.10;3.00;;;21.00;99.90;;;;;;4993290;28;20447;-68
2022/07/03 03:12:08;;;;;;;3.03;2.60;;;20.90;99.90;;;;;;4995309;28;20467;-68
2022/07/03 03:14:40;;;;;;;5.07;3.10;;;20.90;99.90;;;;;;4997190;28;20532;-68
2022/07/03 03:17:08;;;;;;;2.87;2.60;;;20.80;99.90;;;;;;4992184;28;20475;-68
2022/07/03 03:19:43;;;;;;;3.20;2.80;;;20.60;99.90;;;;;;4994956;28;20483;-68
2022/07/03 03:22:18;;;;;;;3.30;3.07;;;20.70;99.90;;;;;;4994650;28;20465;-69
2022/07/03 03:24:44;;;;;;;3.23;2.93;;;20.70;99.90;;;;;;4993689;28;20479;-68
2022/07/03 03:27:10;;;;;;;3.83;2.50;;;20.70;99.90;;;;;;4997174;28;20785;-69
2022/07/03 03:29:36;;;;;;;4.10;2.70;;;20.70;99.90;;;;;;4993582;28;20668;-69
2022/07/03 03:32:04;;;;;;;3.13;2.83;;;20.80;99.90;;;;;;4996463;28;20440;-68
2022/07/03 03:34:32;;;;;;;3.37;3.07;;;20.80;99.90;;;;;;4994425;28;20976;-68
2022/07/03 03:36:57;;;;;;;3.23;2.93;;;20.80;99.90;;;;;;4995243;28;20456;-70
2022/07/03 03:39:24;;;;;;;3.50;3.20;;;20.70;99.90;;;;;;4992418;28;20823;-68
2022/07/03 03:41:50;;;;;;;4.00;3.20;;;20.80;99.90;;;;;;4994614;28;20308;-67
2022/07/03 03:44:15;;;;;;;3.90;3.13;;;21.00;99.90;;;;;;4993825;28;20472;-70
2022/07/03 03:46:41;;;;;;;3.83;2.80;;;21.00;99.90;;;;;;4994446;28;20211;-69
2022/07/03 03:49:07;;;;;;;3.67;2.80;;;21.00;99.90;;;;;;4997879;28;20744;-70
2022/07/03 03:51:32;;;;;;;2.93;2.63;;;20.90;99.90;;;;;;4994192;28;20260;-69
2022/07/03 03:53:58;;;;;;;2.60;2.40;;;20.90;99.90;;;;;;4993895;28;20189;-69
2022/07/03 03:56:24;;;;;;;5.17;2.90;;;20.80;99.90;;;;;;4994293;28;20189;-70
2022/07/03 03:58:49;;;;;;;4.80;3.07;;;20.70;99.90;;;;;;4994854;28;20240;-69
2022/07/03 04:01:15;;;;;;;3.40;3.10;;;20.70;99.90;;;;;;4993956;28;20480;-69
2022/07/03 04:03:41;;;;;;;3.50;3.07;;;20.70;99.90;;;;;;4995743;28;20221;-69
2022/07/03 04:06:07;;;;;;;3.33;2.70;;;20.60;99.90;;;;;;4995683;28;20713;-69
2022/07/03 04:08:33;;;;;;;2.73;2.53;;;20.70;99.90;;;;;;4996034;28;20697;-68
2022/07/03 04:10:58;;;;;;;5.30;2.80;;;20.80;99.90;;;;;;4999781;28;20444;-68
2022/07/03 04:13:24;;;;;;;5.20;2.80;;;20.70;99.90;;;;;;4991980;28;20644;-68
2022/07/03 04:15:51;;;;;;;6.37;3.00;;;20.70;99.90;;;;;;4994649;28;20189;-68
2022/07/03 04:18:17;;;;;;;3.23;2.93;;;20.80;99.90;;;;;;4990069;28;20296;-68
2022/07/03 04:20:43;;;;;;;3.30;3.00;;;20.80;99.90;;;;;;4990384;28;20467;-68
2022/07/03 04:23:09;;;;;;;3.57;2.83;;;20.70;99.90;;;;;;4995125;28;20439;-68
2022/07/03 04:25:35;;;;;;;3.00;2.60;;;20.70;99.90;;;;;;4994544;28;20451;-71
2022/07/03 04:28:00;;;;;;;4.37;2.83;;;20.80;99.90;;;;;;4996247;28;20707;-68
2022/07/03 04:30:26;;;;;;;3.50;3.20;;;20.80;99.90;;;;;;4992408;28;20194;-68
2022/07/03 04:32:52;;;;;;;3.17;2.87;;;20.80;99.90;;;;;;4993619;28;20280;-70
2022/07/03 04:35:17;;;;;;;5.33;3.23;;;20.80;99.90;;;;;;4995678;28;20185;-69
2022/07/03 04:37:44;;;;;;;3.30;3.00;;;20.80;99.90;;;;;;4996435;28;20213;-69
2022/07/03 04:40:10;;;;;;;2.73;2.53;;;20.70;99.90;;;;;;4994156;28;20257;-69
2022/07/03 04:42:36;;;;;;;3.80;3.07;;;20.70;99.90;;;;;;4996602;28;20530;-68
2022/07/03 04:45:05;;;;;;;4.17;3.77;;;20.80;99.90;;;;;;4995238;28;20978;-70
2022/07/03 04:47:30;;;;;;;3.80;2.90;;;20.80;99.90;;;;;;4993431;28;20268;-68
2022/07/03 04:49:56;;;;;;;3.67;2.90;;;20.80;99.90;;;;;;4994374;28;20452;-68
2022/07/03 04:52:22;;;;;;;3.93;3.00;;;20.80;99.90;;;;;;4993308;28;20189;-69
2022/07/03 04:54:49;;;;;;;3.20;2.90;;;20.90;99.90;;;;;;4994407;28;20237;-69
2022/07/03 04:57:15;;;;;;;3.10;2.80;;;21.00;99.90;;;;;;4994625;28;20476;-68
2022/07/03 04:59:41;;;;;;;3.00;2.80;;;21.00;99.90;;;;;;4995480;28;20304;-70
2022/07/03 05:02:07;;;;;;;4.30;3.20;;;20.90;99.90;;;;;;4989887;28;20270;-69
2022/07/03 05:04:32;;;;;;;3.40;3.10;;;20.90;99.90;;;;;;4994899;28;20443;-68
2022/07/03 05:06:59;;;;;;;3.33;3.03;;;20.90;99.90;;;;;;4990174;28;20441;-69
2022/07/03 05:09:25;;;;;;;3.93;2.57;;;21.00;99.90;;;;;;4993174;28;20193;-70
2022/07/03 05:11:50;;;;;;;3.10;2.80;;;20.90;99.90;;;;;;4994030;28;21141;-69
2022/07/03 05:14:16;;;;;;;3.40;3.10;;;20.90;99.90;;;;;;4994480;28;20444;-69
2022/07/03 05:16:42;;;;;;;3.30;3.00;;;20.90;99.90;;;;;;4992557;28;20252;-67
2022/07/03 05:19:07;;;;;;;5.00;2.80;;;20.90;99.90;;;;;;4992227;28;21828;-67
2022/07/03 05:21:33;;;;;;;3.53;3.13;;;21.00;99.90;;;;;;4993068;28;20237;-67
2022/07/03 05:23:58;;;;;;;3.30;3.00;;;21.00;99.90;;;;;;4991266;28;20680;-69
2022/07/03 05:26:24;;;;;;;3.97;3.10;;;21.10;99.90;;;;;;4994805;28;20192;-69
2022/07/03 05:28:50;;;;;;;3.47;3.17;;;21.20;99.90;;;;;;4986429;28;20202;-67
2022/07/03 05:31:15;;;;;;;4.70;3.20;;;21.20;99.90;;;;;;4991032;28;20258;-69
2022/07/03 05:33:41;;;;;;;4.93;3.40;;;21.30;99.90;;;;;;4992328;28;20194;-69
2022/07/03 05:36:07;;;;;;;3.40;3.10;;;21.30;99.90;;;;;;4993903;28;20181;-69
2022/07/03 05:41:17;;;;;;;3.43;2.63;;;21.20;99.90;;;;;;4995214;28;20243;-68
2022/07/03 05:43:43;;;;;;;4.23;3.80;;;21.30;99.90;;;;;;4989248;28;20437;-68
2022/07/03 05:46:09;;;;;;;3.47;3.17;;;21.30;99.90;;;;;;4992571;28;20780;-68
2022/07/03 05:48:35;;;;;;;2.90;2.70;;;21.30;99.90;;;;;;4991370;28;20519;-68
2022/07/03 05:51:01;;;;;;;2.87;2.60;;;21.40;99.90;;;;;;4991688;28;20210;-68
2022/07/03 05:53:27;;;;;;;6.40;2.53;;;21.40;99.90;;;;;;4995405;28;20201;-68
2022/07/03 05:55:52;;;;;;;3.20;2.90;;;21.40;99.90;;;;;;4990504;28;20448;-68
2022/07/03 05:58:18;;;;;;;3.00;2.70;;;21.50;99.90;;;;;;4998257;28;20212;-67
2022/07/03 06:00:44;;;;;;;3.63;3.10;;;21.50;99.90;;;;;;4998402;28;20292;-70
2022/07/03 06:03:09;;;;;;;7.93;2.73;;;21.50;99.90;;;;;;4995565;28;20573;-68
2022/07/03 06:05:35;;;;;;;4.37;3.10;;;21.70;99.90;;;;;;4997432;28;20185;-68
2022/07/03 06:08:01;;;;;;;3.87;3.03;;;21.70;99.90;;;;;;4992820;28;20208;-69
2022/07/03 06:10:28;;;;;;;4.80;2.53;;;21.70;99.90;;;;;;4994981;28;20216;-70
2022/07/03 06:12:54;;;;;;;9.73;2.90;;;21.90;99.90;;;;;;4991553;28;20185;-67
2022/07/03 06:15:20;;;;;;;3.00;2.70;;;21.80;99.90;;;;;;4993819;28;20498;-68
2022/07/03 06:17:46;;;;;;;3.10;2.80;;;21.70;99.90;;;;;;4994508;28;20466;-70
2022/07/03 06:20:12;;;;;;;3.70;2.90;;;21.80;99.90;;;;;;4994381;28;20229;-68
2022/07/03 06:22:38;;;;;;;4.73;2.67;;;21.90;99.90;;;;;;4996838;28;20441;-68
2022/07/03 06:25:05;;;;;;;3.50;2.90;;;21.90;99.90;;;;;;4993345;28;20429;-69
2022/07/03 06:27:31;;;;;;;3.30;3.00;;;22.00;99.90;;;;;;4995532;28;20483;-70
2022/07/03 06:29:56;;;;;;;4.50;2.73;;;22.00;99.90;;;;;;4992526;28;20476;-69
2022/07/03 06:32:22;;;;;;;3.20;2.87;;;22.10;99.90;;;;;;4996772;28;20236;-69
2022/07/03 06:34:49;;;;;;;7.97;2.83;;;22.20;99.90;;;;;;4996209;28;20204;-68
2022/07/03 06:37:15;;;;;;;4.90;2.83;;;22.20;99.90;;;;;;4994929;28;20638;-69
2022/07/03 06:39:40;;;;;;;3.00;2.80;;;22.40;99.90;;;;;;4991606;28;20477;-72
2022/07/03 06:42:06;;;;;;;3.30;3.00;;;22.40;99.90;;;;;;4992668;28;20198;-70
2022/07/03 06:44:32;;;;;;;3.80;2.70;;;22.50;99.90;;;;;;4995791;28;20190;-72
2022/07/03 06:46:58;;;;;;;2.70;2.50;;;22.50;99.90;;;;;;4995943;28;20189;-72
2022/07/03 06:49:23;;;;;;;4.10;2.93;;;22.50;99.90;;;;;;4988986;28;20717;-71
2022/07/03 06:51:49;;;;;;;3.73;2.83;;;22.60;99.90;;;;;;4991015;28;20185;-70
2022/07/03 06:54:15;;;;;;;2.83;2.50;;;22.60;99.90;;;;;;4997375;28;20196;-69
2022/07/03 06:56:42;;;;;;;3.27;2.80;;;22.70;99.90;;;;;;4990180;28;20284;-69
2022/07/03 06:59:08;;;;;;;3.17;2.60;;;22.80;99.90;;;;;;4990533;28;20216;-70
2022/07/03 07:01:34;;;;;;;2.77;2.47;;;22.90;99.90;;;;;;4990814;28;20473;-69
2022/07/03 07:03:59;;;;;;;3.50;3.10;;;22.90;99.90;;;;;;4995810;28;20495;-70
2022/07/03 07:06:25;;;;;;;4.60;3.43;;;23.00;99.90;;;;;;4993533;28;20186;-69
2022/07/03 07:08:50;;;;;;;3.07;2.63;;;23.00;99.90;;;;;;4997119;28;20370;-68
2022/07/03 07:11:16;;;;;;;3.10;2.80;;;23.10;99.90;;;;;;4992169;28;20260;-69
2022/07/03 07:13:42;;;;;;;2.87;2.63;;;23.20;99.90;;;;;;4991577;28;20189;-69
2022/07/03 07:16:08;;;;;;;3.20;2.43;;;23.20;99.90;;;;;;4994066;28;20204;-69
2022/07/03 07:18:34;;;;;;;3.80;2.90;;;23.30;99.90;;;;;;4994075;28;20206;-69
2022/07/03 07:21:00;;;;;;;3.63;2.70;;;23.30;99.90;;;;;;4993853;28;20468;-69
2022/07/03 07:23:25;;;;;;;3.30;3.00;;;23.40;99.90;;;;;;4992723;28;20440;-68
2022/07/03 07:25:51;;;;;;;3.10;2.70;;;23.50;99.90;;;;;;4998012;28;20837;-69
2022/07/03 07:28:17;;;;;;;3.90;2.73;;;23.50;99.90;;;;;;4993037;28;20564;-71
2022/07/03 07:30:42;;;;;;;3.70;2.60;;;23.60;99.90;;;;;;4990354;28;20259;-70
2022/07/03 07:33:09;;;;;;;3.80;2.50;;;23.60;99.90;;;;;;4995211;28;20649;-72
2022/07/03 07:35:34;;;;;;;3.63;2.67;;;23.60;99.90;;;;;;4991893;28;20197;-72
2022/07/03 07:38:00;;;;;;;4.10;2.60;;;23.70;99.90;;;;;;4997571;28;21523;-71
2022/07/03 07:40:26;;;;;;;4.47;2.70;;;23.80;99.90;;;;;;4993958;28;20516;-70
2022/07/03 07:42:52;;;;;;;2.90;2.60;;;23.90;99.90;;;;;;4991575;28;20181;-70
2022/07/03 07:45:17;;;;;;;2.50;2.30;;;23.90;99.90;;;;;;4996445;28;20185;-70
2022/07/03 07:47:43;;;;;;;3.00;2.20;;;24.10;99.90;;;;;;4995014;28;20255;-72
2022/07/03 07:50:09;;;;;;;2.33;2.13;;;24.00;99.90;;;;;;4994215;28;20316;-71
2022/07/03 07:52:35;;;;;;;2.93;2.40;;;24.10;99.90;;;;;;4994116;28;21367;-71
2022/07/03 07:55:01;;;;;;;2.23;2.00;;;24.30;99.90;;;;;;4991226;28;20540;-70
2022/07/03 07:57:37;;;;;;;2.83;2.60;;;24.40;99.90;;;;;;4990058;28;20201;-70
2022/07/03 08:00:08;;;;;;;2.70;2.50;;;24.40;99.90;;;;;;4995517;28;20216;-70
2022/07/03 08:05:36;;;;;;;2.50;2.30;;;24.40;99.90;;;;;;4994865;28;20451;-71
2022/07/03 08:08:12;;;;;;;3.90;2.60;;;24.40;99.90;;;;;;4991560;28;20515;-70
2022/07/03 08:10:43;;;;;;;3.53;2.40;;;24.60;99.90;;;;;;4995733;28;20519;-71
2022/07/03 08:13:10;;;;;;;2.30;2.10;;;24.60;99.90;;;;;;4996319;28;20763;-72
2022/07/03 08:15:36;;;;;;;3.47;2.60;;;24.70;99.90;;;;;;4990874;28;20486;-72
2022/07/03 08:18:03;;;;;;;2.80;2.60;;;24.70;99.90;;;;;;4994836;28;20452;-72
2022/07/03 08:20:29;;;;;;;3.70;2.40;;;24.80;99.90;;;;;;4994182;28;20210;-72
2022/07/03 08:22:55;;;;;;;2.50;2.30;;;24.80;99.90;;;;;;4992235;28;20417;-70
2022/07/03 08:25:20;;;;;;;4.17;2.60;;;24.80;99.90;;;;;;4991776;28;20503;-68
2022/07/03 08:27:46;;;;;;;3.53;2.30;;;24.80;99.90;;;;;;4991533;28;20451;-68
2022/07/03 08:30:17;;;;;;;3.43;2.37;;;24.90;99.90;;;;;;4992581;28;20581;-68
2022/07/03 08:32:47;;;;;;;5.73;2.87;;;24.90;99.90;;;;;;4991942;28;20213;-70
2022/07/03 08:35:13;;;;;;;2.60;2.40;;;24.90;99.90;;;;;;4993388;28;20435;-72
2022/07/03 08:37:40;;;;;;;4.50;2.40;;;24.90;99.90;;;;;;4994153;28;20448;-70
2022/07/03 08:40:07;;;;;;;3.63;2.77;;;25.00;99.90;;;;;;4995757;28;20519;-70
2022/07/03 08:42:37;;;;;;;5.00;2.70;;;25.10;99.90;;;;;;4998600;28;20516;-70
2022/07/03 08:45:03;;;;;;;2.73;2.53;;;25.10;99.90;;;;;;4991662;28;20425;-70
2022/07/03 08:47:31;;;;;;;2.37;2.17;;;25.10;99.90;;;;;;4996161;28;20523;-70
2022/07/03 08:50:00;;;;;;;2.63;2.40;;;25.20;99.90;;;;;;5020697;22;20863;-66
2022/07/03 08:52:26;;;;;;;2.70;2.50;;;25.20;99.60;;;;;;5010682;28;20486;-65
2022/07/03 08:54:52;;;;;;;2.43;2.23;;;25.30;98.10;;;;;;5011929;28;20486;-64
2022/07/03 08:57:18;;;;;;;2.57;2.30;;;25.30;97.50;;;;;;5010776;28;20459;-65
2022/07/03 08:59:49;;;;;;;2.90;2.17;;;25.40;97.10;;;;;;4992420;28;20205;-65
2022/07/03 09:02:16;;;;;;;4.60;3.10;;;25.50;96.70;;;;;;5013868;28;21261;-65
2022/07/03 09:04:42;;;;;;;2.60;2.40;;;25.50;96.00;;;;;;5008270;28;20452;-64
2022/07/03 09:07:08;;;;;;;3.43;2.40;;;25.50;95.10;;;;;;5012249;28;20477;-65
2022/07/03 09:09:34;;;;;;;2.43;2.23;;;25.60;95.00;;;;;;5016464;28;20453;-65
2022/07/03 09:12:00;;;;;;;3.80;2.40;;;25.70;95.10;;;;;;5012908;28;20993;-64
2022/07/03 09:14:25;;;;;;;3.40;2.70;;;25.70;94.00;;;;;;5011905;28;20189;-65
2022/07/03 09:16:51;;;;;;;2.33;2.13;;;25.80;94.50;;;;;;5011763;28;20238;-65
2022/07/03 09:19:43;;;;;;;3.07;2.47;;;25.90;94.00;;;;;;5008219;28;20213;-65
2022/07/03 09:22:40;;;;;;;3.23;2.40;;;25.90;94.10;;;;;;5010558;28;20195;-65
2022/07/03 09:25:08;;;;;;;3.00;2.60;;;25.90;93.80;;;;;;4946738;28;20526;-65
2022/07/03 09:27:35;;;;;;;3.27;2.30;;;25.90;94.30;;;;;;5011083;28;20427;-66
2022/07/03 09:30:03;;;;;;;2.50;2.30;;;25.90;92.60;;;;;;5013217;28;20454;-65
2022/07/03 09:32:40;;;;;;;2.70;2.37;;;25.90;93.60;;;;;;5017249;28;20446;-65
2022/07/03 09:35:24;;;;;;;3.00;2.50;;;26.00;93.60;;;;;;5015272;28;20440;-65
2022/07/03 09:37:51;;;;;;;2.77;2.57;;;26.10;93.60;;;;;;5019445;28;20412;-66
2022/07/03 09:40:18;;;;;;;2.47;2.23;;;26.20;92.70;;;;;;5012379;28;20506;-64
2022/07/03 09:43:06;;;;;;;2.57;2.30;;;26.30;93.20;;;;;;5016865;28;20549;-65
2022/07/03 09:46:00;;;;;;;3.23;2.43;;;26.40;93.50;;;;;;5015112;28;20438;-65
2022/07/03 09:48:37;;;;;;;4.00;2.70;;;26.40;92.50;;;;;;5015115;28;20469;-64
2022/07/03 09:51:14;;;;;;;2.37;2.17;;;26.50;92.40;;;;;;5012740;28;20470;-65
2022/07/03 09:53:44;;;;;;;2.50;2.30;;;26.50;91.50;;;;;;5013967;28;20525;-65
2022/07/03 09:56:11;;;;;;;2.50;2.30;;;26.50;91.70;;;;;;5012950;28;20462;-65
2022/07/03 09:58:39;;;;;;;4.90;2.10;;;26.50;92.20;;;;;;5013415;28;20439;-65
2022/07/03 10:01:22;;;;;;;3.70;2.30;;;26.60;89.80;;;;;;5000348;28;20860;-65
2022/07/03 10:03:48;;;;;;;5.13;2.73;;;26.50;89.30;;;;;;5013567;28;20802;-65
2022/07/03 10:06:14;;;;;;;2.43;2.23;;;26.50;89.00;;;;;;5012356;28;20461;-65
2022/07/03 10:08:41;;;;;;;3.50;2.50;;;26.50;85.70;;;;;;5013237;28;20483;-65
2022/07/03 10:11:07;;;;;;;3.13;2.00;;;26.70;85.50;;;;;;5017108;28;20204;-68
2022/07/03 10:13:36;;;;;;;2.43;2.23;;;26.70;85.40;;;;;;5010911;28;20805;-65
2022/07/03 10:16:02;;;;;;;2.50;2.30;;;26.80;85.40;;;;;;5013554;28;20186;-65
2022/07/03 10:18:31;;;;;;;2.10;1.90;;;26.90;84.60;;;;;;5017215;28;20427;-65
2022/07/03 10:20:59;;;;;;;3.23;2.80;;;26.90;83.10;;;;;;5015731;28;20899;-65
2022/07/03 10:23:26;;;;;;;5.40;2.50;;;26.90;82.90;;;;;;5009579;28;20438;-65
2022/07/03 10:25:53;;;;;;;3.27;2.33;;;26.90;83.50;;;;;;5014900;28;20535;-66
2022/07/03 10:28:19;;;;;;;2.20;2.00;;;26.90;79.60;;;;;;5015332;28;20940;-66
2022/07/03 10:30:47;;;;;;;4.77;2.30;;;26.90;80.30;;;;;;5011172;28;20451;-65
2022/07/03 10:33:13;;;;;;;5.50;1.97;;;27.00;79.60;;;;;;5014808;28;20427;-66
2022/07/03 10:35:42;;;;;;;3.07;2.33;;;27.00;79.00;;;;;;5018925;28;20453;-65
2022/07/03 10:38:34;;;;;;;2.33;2.10;;;27.00;81.10;;;;;;5012206;28;20526;-66
2022/07/03 10:46:41;;;;;;;2.40;2.20;;;27.20;82.20;;;;;;5016029;28;20465;-66
2022/07/03 10:49:11;;;;;;;2.57;2.30;;;27.20;83.80;;;;;;5014516;28;20466;-66
2022/07/03 10:51:54;;;;;;;2.63;2.00;;;27.30;82.20;;;;;;4997008;28;20442;-65
2022/07/03 10:54:26;;;;;;;5.67;2.33;;;27.40;81.00;;;;;;5012762;28;20451;-65
2022/07/03 10:56:58;;;;;;;2.90;2.60;;;27.40;80.40;;;;;;5012764;28;20446;-65
2022/07/03 10:59:46;;;;;;;2.20;2.00;;;27.50;80.70;;;;;;5012792;28;20458;-65
2022/07/03 11:02:31;;;;;;;2.80;2.03;;;27.50;78.00;;;;;;5010645;28;20431;-67
2022/07/03 11:05:03;;;;;;;4.30;3.90;;;27.50;76.80;;;;;;5012493;28;20428;-65
2022/07/03 11:07:29;;;;;;;3.70;2.50;;;27.60;77.40;;;;;;5013391;28;20454;-65
2022/07/03 11:10:13;;;;;;;2.83;2.03;;;27.70;76.80;;;;;;5011347;28;20455;-65
2022/07/03 11:13:01;;;;;;;3.67;2.20;;;27.80;76.70;;;;;;5012521;28;20550;-66
2022/07/03 11:15:36;;;;;;;3.50;2.50;;;27.80;77.40;;;;;;5016484;28;20515;-66
2022/07/03 11:18:05;;;;;;;3.30;3.00;;;27.80;77.00;;;;;;5013212;28;20432;-66
2022/07/03 11:20:31;;;;;;;3.40;2.03;;;27.80;76.70;;;;;;5010738;28;20459;-65
2022/07/03 11:23:09;;;;;;;2.23;2.03;;;27.80;74.70;;;;;;5016979;28;20525;-66
2022/07/03 11:25:42;;;;;;;4.47;2.30;;;27.90;72.60;;;;;;5013835;28;20482;-67
2022/07/03 11:28:28;;;;;;;2.63;1.90;;;28.00;72.20;;;;;;5013869;28;20443;-66
2022/07/03 11:33:53;;;;;;;2.47;2.00;;;28.20;73.10;;;;;;5008197;28;20435;-65
2022/07/03 11:36:22;;;;;;;3.50;1.80;;;28.20;72.80;;;;;;5010090;28;20450;-66
2022/07/03 11:39:00;;;;;;;2.40;2.20;;;28.30;72.50;;;;;;5011199;28;20419;-66
2022/07/03 11:41:46;;;;;;;2.57;2.00;;;28.50;73.10;;;;;;5012015;28;20463;-66
2022/07/03 11:44:20;;;;;;;2.20;1.97;;;28.60;73.20;;;;;;5016731;28;20534;-66
2022/07/03 11:46:51;;;;;;;2.70;1.97;;;28.90;70.90;;;;;;5010979;28;21207;-65
2022/07/03 11:49:22;;;;;;;3.20;1.87;;;29.00;71.80;;;;;;4995173;28;20618;-65
2022/07/03 11:52:01;;;;;;;3.33;1.97;;;29.10;70.70;;;;;;5013307;28;20427;-65
2022/07/03 11:54:33;;;;;;;2.90;2.00;;;29.20;70.50;;;;;;5013468;28;20550;-65
2022/07/03 11:57:00;;;;;;;2.97;2.17;;;29.30;69.40;;;;;;5012066;28;20454;-65
2022/07/03 11:59:27;;;;;;;2.60;2.20;;;29.30;68.50;;;;;;5007454;28;20459;-65
2022/07/03 12:02:01;;;;;;;3.17;2.20;;;29.40;66.90;;;;;;5010788;28;20441;-65
2022/07/03 12:04:27;;;;;;;4.70;2.03;;;29.80;67.80;;;;;;5010212;28;20439;-65
2022/07/03 12:06:57;;;;;;;2.20;2.00;;;30.40;66.40;;;;;;5012051;28;20549;-65
2022/07/03 12:09:31;;;;;;;3.70;1.87;;;31.60;64.70;;;;;;5015035;28;20558;-66
2022/07/03 12:11:57;;;;;;;2.70;2.10;;;33.20;60.50;;;;;;5013521;28;20428;-66
2022/07/03 12:14:51;;;;;;;7.37;2.60;;;34.60;56.10;;;;;;5009102;28;20452;-66
2022/07/03 12:17:18;;;;;;;2.97;2.63;;;35.30;54.30;;;;;;5010626;28;20443;-66
2022/07/03 12:19:49;;;;;;;2.33;2.10;;;36.30;52.20;;;;;;5012580;28;20463;-65
2022/07/03 12:22:37;;;;;;;2.93;2.00;;;37.40;50.60;;;;;;5010979;28;20474;-66
2022/07/03 12:25:05;;;;;;;2.27;2.00;;;38.50;48.60;;;;;;5013424;28;20406;-65
2022/07/03 12:27:33;;;;;;;2.80;2.60;;;38.90;46.60;;;;;;5016587;28;20427;-65
2022/07/03 12:29:59;;;;;;;2.53;2.10;;;39.70;46.10;;;;;;5010456;28;20463;-65
2022/07/03 12:32:25;;;;;;;2.40;2.20;;;40.20;44.40;;;;;;5015039;28;20389;-65
2022/07/03 12:34:51;;;;;;;2.60;2.40;;;39.60;43.30;;;;;;5013960;28;20701;-66
2022/07/03 12:37:16;;;;;;;2.20;2.00;;;39.50;43.20;;;;;;5012095;28;20428;-66
2022/07/03 12:39:47;;;;;;;2.50;2.30;;;39.70;41.60;;;;;;5011899;28;20223;-66
2022/07/03 12:42:21;;;;;;;2.97;2.53;;;39.40;41.10;;;;;;5013887;28;20184;-66
2022/07/03 12:45:00;;;;;;;2.50;2.30;;;40.10;41.90;;;;;;5015501;28;20515;-65
2022/07/03 12:47:27;;;;;;;6.17;2.30;;;40.10;40.50;;;;;;4995644;28;20509;-65
2022/07/03 12:50:02;;;;;;;2.40;2.17;;;40.50;40.70;;;;;;5012014;28;20864;-66
2022/07/03 12:52:29;;;;;;;2.40;2.20;;;40.80;40.70;;;;;;5016062;28;20434;-66
2022/07/03 12:54:55;;;;;;;2.33;2.13;;;41.40;40.00;;;;;;5012891;28;20958;-66
2022/07/03 13:00:09;;;;;;;2.07;1.97;;;41.10;39.50;;;;;;5011897;28;20485;-66
2022/07/03 13:02:35;;;;;;;3.23;2.17;;;40.40;39.60;;;;;;5019190;28;20421;-66
2022/07/03 13:05:13;;;;;;;2.27;2.07;;;40.40;39.50;;;;;;5013426;28;20421;-66
2022/07/03 13:07:40;;;;;;;2.97;2.00;;;40.00;39.40;;;;;;5014443;28;20402;-66
2022/07/03 13:10:06;;;;;;;2.50;2.27;;;39.90;39.80;;;;;;5011529;28;20444;-66
2022/07/03 13:12:32;;;;;;;4.57;2.20;;;39.60;40.70;;;;;;5002956;28;20442;-66
2022/07/03 13:15:02;;;;;;;2.50;2.30;;;40.00;39.50;;;;;;5014330;28;20966;-66
2022/07/03 13:17:50;;;;;;;2.40;2.20;;;39.60;39.40;;;;;;5012675;28;20637;-66
2022/07/03 13:20:16;;;;;;;2.27;2.07;;;38.80;40.10;;;;;;5010682;28;20448;-66